sensor_id;sensor_type;location;lat;lon;timestamp;temperature;humidity
28071;DHT22;15383;48.408;9.968;2022-08-21T00:00:40;19.90;97.30
28071;DHT22;15383;48.408;9.968;2022-08-21T00:03:09;19.90;97.40
28071;DHT22;15383;48.408;9.968;2022-08-21T00:05:41;19.90;97.40
28071;DHT22;15383;48.408;9.968;2022-08-21T00:08:08;19.90;97.40
28071;DHT22;15383;48.408;9.968;2022-08-21T00:10:33;19.90;97.40
28071;DHT22;15383;48.408;9.968;2022-08-21T00:13:01;19.90;97.40
28071;DHT22;15383;48.408;9.968;2022-08-21T00:15:30;19.90;97.40
28071;DHT22;15383;48.408;9.968;2022-08-21T00:17:56;19.90;97.40
28071;DHT22;15383;48.408;9.968;2022-08-21T00:20:23;19.80;97.40
28071;DHT22;15383;48.408;9.968;2022-08-21T00:22:49;19.80;97.40
28071;DHT22;15383;48.408;9.968;2022-08-21T00:25:16;19.80;97.60
28071;DHT22;15383;48.408;9.968;2022-08-21T00:27:42;19.80;97.40
28071;DHT22;15383;48.408;9.968;2022-08-21T00:30:10;19.80;97.40
28071;DHT22;15383;48.408;9.968;2022-08-21T00:32:38;19.80;97.40
28071;DHT22;15383;48.408;9.968;2022-08-21T00:35:10;19.80;97.40
28071;DHT22;15383;48.408;9.968;2022-08-21T00:37:40;19.80;97.40
28071;DHT22;15383;48.408;9.968;2022-08-21T00:40:08;19.80;97.40
28071;DHT22;15383;48.408;9.968;2022-08-21T00:42:34;19.80;97.40
28071;DHT22;15383;48.408;9.968;2022-08-21T00:45:00;19.70;97.40
28071;DHT22;15383;48.408;9.968;2022-08-21T00:47:27;19.70;97.40
28071;DHT22;15383;48.408;9.968;2022-08-21T00:49:53;19.70;97.40
28071;DHT22;15383;48.408;9.968;2022-08-21T00:52:23;19.70;97.40
28071;DHT22;15383;48.408;9.968;2022-08-21T00:54:50;19.70;97.40
28071;DHT22;15383;48.408;9.968;2022-08-21T00:57:24;19.70;97.40
28071;DHT22;15383;48.408;9.968;2022-08-21T00:59:53;19.70;97.40
28071;DHT22;15383;48.408;9.968;2022-08-21T01:02:20;19.70;97.40
28071;DHT22;15383;48.408;9.968;2022-08-21T01:04:46;19.70;97.40
28071;DHT22;15383;48.408;9.968;2022-08-21T01:07:12;19.70;97.40
28071;DHT22;15383;48.408;9.968;2022-08-21T01:09:42;19.70;97.40
28071;DHT22;15383;48.408;9.968;2022-08-21T01:12:09;19.70;97.40
28071;DHT22;15383;48.408;9.968;2022-08-21T01:14:36;19.60;97.30
28071;DHT22;15383;48.408;9.968;2022-08-21T01:17:03;19.60;97.40
28071;DHT22;15383;48.408;9.968;2022-08-21T01:19:29;19.70;97.40
28071;DHT22;15383;48.408;9.968;2022-08-21T01:21:55;19.60;97.30
28071;DHT22;15383;48.408;9.968;2022-08-21T01:24:22;19.60;97.30
28071;DHT22;15383;48.408;9.968;2022-08-21T01:26:48;19.60;97.40
28071;DHT22;15383;48.408;9.968;2022-08-21T01:29:41;19.60;97.40
28071;DHT22;15383;48.408;9.968;2022-08-21T01:32:12;19.60;97.30
28071;DHT22;15383;48.408;9.968;2022-08-21T01:34:42;19.60;97.30
28071;DHT22;15383;48.408;9.968;2022-08-21T01:37:08;19.60;97.30
28071;DHT22;15383;48.408;9.968;2022-08-21T01:39:35;19.60;97.30
28071;DHT22;15383;48.408;9.968;2022-08-21T01:42:01;19.60;97.30
28071;DHT22;15383;48.408;9.968;2022-08-21T01:44:27;19.60;97.30
28071;DHT22;15383;48.408;9.968;2022-08-21T01:46:54;19.60;97.30
28071;DHT22;15383;48.408;9.968;2022-08-21T01:49:20;19.60;97.30
28071;DHT22;15383;48.408;9.968;2022-08-21T01:51:46;19.60;97.30
28071;DHT22;15383;48.408;9.968;2022-08-21T01:54:12;19.60;97.30
28071;DHT22;15383;48.408;9.968;2022-08-21T01:56:44;19.50;97.30
28071;DHT22;15383;48.408;9.968;2022-08-21T01:59:10;19.60;97.30
28071;DHT22;15383;48.408;9.968;2022-08-21T02:01:36;19.60;97.30
28071;DHT22;15383;48.408;9.968;2022-08-21T02:04:05;19.60;97.30
28071;DHT22;15383;48.408;9.968;2022-08-21T02:06:31;19.60;97.30
28071;DHT22;15383;48.408;9.968;2022-08-21T02:08:56;19.50;97.30
28071;DHT22;15383;48.408;9.968;2022-08-21T02:11:22;19.50;97.60
28071;DHT22;15383;48.408;9.968;2022-08-21T02:13:48;19.50;97.30
28071;DHT22;15383;48.408;9.968;2022-08-21T02:16:13;19.50;97.20
28071;DHT22;15383;48.408;9.968;2022-08-21T02:18:40;19.50;97.20
28071;DHT22;15383;48.408;9.968;2022-08-21T02:21:06;19.50;97.20
28071;DHT22;15383;48.408;9.968;2022-08-21T02:23:32;19.50;97.20
28071;DHT22;15383;48.408;9.968;2022-08-21T02:25:59;19.50;97.30
28071;DHT22;15383;48.408;9.968;2022-08-21T02:28:25;19.50;97.20
28071;DHT22;15383;48.408;9.968;2022-08-21T02:30:52;19.50;97.20
28071;DHT22;15383;48.408;9.968;2022-08-21T02:33:18;19.40;97.20
28071;DHT22;15383;48.408;9.968;2022-08-21T02:35:45;19.50;97.20
28071;DHT22;15383;48.408;9.968;2022-08-21T02:38:14;19.50;97.20
28071;DHT22;15383;48.408;9.968;2022-08-21T02:40:42;19.40;97.20
28071;DHT22;15383;48.408;9.968;2022-08-21T02:43:08;19.40;97.20
28071;DHT22;15383;48.408;9.968;2022-08-21T02:45:35;19.50;97.20
28071;DHT22;15383;48.408;9.968;2022-08-21T02:48:05;19.40;97.50
28071;DHT22;15383;48.408;9.968;2022-08-21T02:50:40;19.40;97.20
28071;DHT22;15383;48.408;9.968;2022-08-21T02:53:08;19.40;97.20
28071;DHT22;15383;48.408;9.968;2022-08-21T02:55:35;19.40;97.20
28071;DHT22;15383;48.408;9.968;2022-08-21T02:58:03;19.40;97.20
28071;DHT22;15383;48.408;9.968;2022-08-21T03:00:31;19.40;97.10
28071;DHT22;15383;48.408;9.968;2022-08-21T03:02:57;19.30;97.10
28071;DHT22;15383;48.408;9.968;2022-08-21T03:05:25;19.40;97.20
28071;DHT22;15383;48.408;9.968;2022-08-21T03:07:51;19.40;97.20
28071;DHT22;15383;48.408;9.968;2022-08-21T03:10:19;19.30;97.10
28071;DHT22;15383;48.408;9.968;2022-08-21T03:12:46;19.40;97.10
28071;DHT22;15383;48.408;9.968;2022-08-21T03:15:14;19.40;97.20
28071;DHT22;15383;48.408;9.968;2022-08-21T03:17:40;19.40;97.10
28071;DHT22;15383;48.408;9.968;2022-08-21T03:20:07;19.30;97.10
28071;DHT22;15383;48.408;9.968;2022-08-21T03:22:33;19.40;97.10
28071;DHT22;15383;48.408;9.968;2022-08-21T03:24:59;19.30;97.10
28071;DHT22;15383;48.408;9.968;2022-08-21T03:27:27;19.30;97.10
28071;DHT22;15383;48.408;9.968;2022-08-21T03:29:54;19.30;97.00
28071;DHT22;15383;48.408;9.968;2022-08-21T03:32:20;19.30;97.00
28071;DHT22;15383;48.408;9.968;2022-08-21T03:34:46;19.30;97.00
28071;DHT22;15383;48.408;9.968;2022-08-21T03:37:13;19.30;97.00
28071;DHT22;15383;48.408;9.968;2022-08-21T03:39:40;19.30;97.00
28071;DHT22;15383;48.408;9.968;2022-08-21T03:42:07;19.30;97.00
28071;DHT22;15383;48.408;9.968;2022-08-21T03:44:33;19.30;97.00
28071;DHT22;15383;48.408;9.968;2022-08-21T03:47:00;19.30;97.00
28071;DHT22;15383;48.408;9.968;2022-08-21T03:49:26;19.30;97.00
28071;DHT22;15383;48.408;9.968;2022-08-21T03:51:51;19.30;97.00
28071;DHT22;15383;48.408;9.968;2022-08-21T03:54:17;19.30;97.00
28071;DHT22;15383;48.408;9.968;2022-08-21T03:56:43;19.20;96.90
28071;DHT22;15383;48.408;9.968;2022-08-21T03:59:08;19.20;96.90
28071;DHT22;15383;48.408;9.968;2022-08-21T04:01:34;19.30;96.90
28071;DHT22;15383;48.408;9.968;2022-08-21T04:04:00;19.30;96.90
28071;DHT22;15383;48.408;9.968;2022-08-21T04:06:26;19.30;96.90
28071;DHT22;15383;48.408;9.968;2022-08-21T04:08:52;19.20;96.90
28071;DHT22;15383;48.408;9.968;2022-08-21T04:11:18;19.20;96.90
28071;DHT22;15383;48.408;9.968;2022-08-21T04:13:44;19.20;96.90
28071;DHT22;15383;48.408;9.968;2022-08-21T04:16:10;19.20;96.80
28071;DHT22;15383;48.408;9.968;2022-08-21T04:18:36;19.20;96.80
28071;DHT22;15383;48.408;9.968;2022-08-21T04:21:02;19.20;96.90
28071;DHT22;15383;48.408;9.968;2022-08-21T04:23:28;19.20;96.80
28071;DHT22;15383;48.408;9.968;2022-08-21T04:25:56;19.20;96.80
28071;DHT22;15383;48.408;9.968;2022-08-21T04:28:22;19.20;96.80
28071;DHT22;15383;48.408;9.968;2022-08-21T04:30:49;19.20;96.80
28071;DHT22;15383;48.408;9.968;2022-08-21T04:33:16;19.20;96.80
28071;DHT22;15383;48.408;9.968;2022-08-21T04:35:41;19.10;96.80
28071;DHT22;15383;48.408;9.968;2022-08-21T04:38:08;19.10;96.80
28071;DHT22;15383;48.408;9.968;2022-08-21T04:40:33;19.10;96.80
28071;DHT22;15383;48.408;9.968;2022-08-21T04:43:05;19.20;96.80
28071;DHT22;15383;48.408;9.968;2022-08-21T04:45:33;19.20;96.80
28071;DHT22;15383;48.408;9.968;2022-08-21T04:48:02;19.10;96.70
28071;DHT22;15383;48.408;9.968;2022-08-21T04:50:36;19.10;96.70
28071;DHT22;15383;48.408;9.968;2022-08-21T04:53:05;19.10;96.70
28071;DHT22;15383;48.408;9.968;2022-08-21T04:55:32;19.10;96.70
28071;DHT22;15383;48.408;9.968;2022-08-21T04:57:59;19.10;96.70
28071;DHT22;15383;48.408;9.968;2022-08-21T05:00:25;19.10;97.00
28071;DHT22;15383;48.408;9.968;2022-08-21T05:02:52;19.10;96.70
28071;DHT22;15383;48.408;9.968;2022-08-21T05:05:21;19.10;96.70
28071;DHT22;15383;48.408;9.968;2022-08-21T05:07:47;19.10;96.70
28071;DHT22;15383;48.408;9.968;2022-08-21T05:10:13;19.10;96.70
28071;DHT22;15383;48.408;9.968;2022-08-21T05:12:41;19.10;96.70
28071;DHT22;15383;48.408;9.968;2022-08-21T05:15:08;19.10;96.60
28071;DHT22;15383;48.408;9.968;2022-08-21T05:17:34;19.10;96.60
28071;DHT22;15383;48.408;9.968;2022-08-21T05:19:59;19.10;96.60
28071;DHT22;15383;48.408;9.968;2022-08-21T05:22:25;19.10;96.60
28071;DHT22;15383;48.408;9.968;2022-08-21T05:24:51;19.10;96.60
28071;DHT22;15383;48.408;9.968;2022-08-21T05:27:17;19.10;96.60
28071;DHT22;15383;48.408;9.968;2022-08-21T05:29:43;19.10;96.60
28071;DHT22;15383;48.408;9.968;2022-08-21T05:32:10;19.20;96.60
28071;DHT22;15383;48.408;9.968;2022-08-21T05:34:36;19.20;96.50
28071;DHT22;15383;48.408;9.968;2022-08-21T05:37:02;19.20;96.50
28071;DHT22;15383;48.408;9.968;2022-08-21T05:39:28;19.20;96.40
28071;DHT22;15383;48.408;9.968;2022-08-21T05:41:54;19.20;96.40
28071;DHT22;15383;48.408;9.968;2022-08-21T05:44:19;19.30;96.40
28071;DHT22;15383;48.408;9.968;2022-08-21T05:46:45;19.30;96.40
28071;DHT22;15383;48.408;9.968;2022-08-21T05:49:11;19.30;96.30
28071;DHT22;15383;48.408;9.968;2022-08-21T05:51:39;19.30;96.30
28071;DHT22;15383;48.408;9.968;2022-08-21T05:54:05;19.30;96.30
28071;DHT22;15383;48.408;9.968;2022-08-21T05:56:31;19.30;96.20
28071;DHT22;15383;48.408;9.968;2022-08-21T05:58:57;19.40;96.20
28071;DHT22;15383;48.408;9.968;2022-08-21T06:01:23;19.40;96.20
28071;DHT22;15383;48.408;9.968;2022-08-21T06:03:49;19.40;96.10
28071;DHT22;15383;48.408;9.968;2022-08-21T06:06:14;19.50;96.00
28071;DHT22;15383;48.408;9.968;2022-08-21T06:08:41;19.50;95.90
28071;DHT22;15383;48.408;9.968;2022-08-21T06:11:09;19.50;95.80
28071;DHT22;15383;48.408;9.968;2022-08-21T06:13:35;19.60;95.70
28071;DHT22;15383;48.408;9.968;2022-08-21T06:16:10;19.60;95.70
28071;DHT22;15383;48.408;9.968;2022-08-21T06:18:40;19.60;95.60
28071;DHT22;15383;48.408;9.968;2022-08-21T06:21:06;19.70;95.50
28071;DHT22;15383;48.408;9.968;2022-08-21T06:23:33;19.70;95.50
28071;DHT22;15383;48.408;9.968;2022-08-21T06:26:00;19.80;95.40
28071;DHT22;15383;48.408;9.968;2022-08-21T06:28:26;19.80;95.40
28071;DHT22;15383;48.408;9.968;2022-08-21T06:30:51;19.90;95.40
28071;DHT22;15383;48.408;9.968;2022-08-21T06:33:17;19.90;95.40
28071;DHT22;15383;48.408;9.968;2022-08-21T06:35:43;20.00;95.40
28071;DHT22;15383;48.408;9.968;2022-08-21T06:38:08;20.00;95.40
28071;DHT22;15383;48.408;9.968;2022-08-21T06:43:58;20.20;95.40
28071;DHT22;15383;48.408;9.968;2022-08-21T06:50:15;20.30;95.30
28071;DHT22;15383;48.408;9.968;2022-08-21T06:52:40;20.40;95.30
28071;DHT22;15383;48.408;9.968;2022-08-21T06:55:08;20.50;95.50
28071;DHT22;15383;48.408;9.968;2022-08-21T06:57:34;20.50;95.20
28071;DHT22;15383;48.408;9.968;2022-08-21T07:00:00;20.60;95.10
28071;DHT22;15383;48.408;9.968;2022-08-21T07:02:26;20.60;95.00
28071;DHT22;15383;48.408;9.968;2022-08-21T07:04:51;20.70;94.90
28071;DHT22;15383;48.408;9.968;2022-08-21T07:07:17;20.70;94.80
28071;DHT22;15383;48.408;9.968;2022-08-21T07:09:43;20.80;94.70
28071;DHT22;15383;48.408;9.968;2022-08-21T07:12:09;20.80;94.30
28071;DHT22;15383;48.408;9.968;2022-08-21T07:14:35;20.70;94.10
28071;DHT22;15383;48.408;9.968;2022-08-21T07:17:01;20.70;93.90
28071;DHT22;15383;48.408;9.968;2022-08-21T07:19:26;20.80;93.60
28071;DHT22;15383;48.408;9.968;2022-08-21T07:21:57;20.80;93.30
28071;DHT22;15383;48.408;9.968;2022-08-21T07:24:24;20.80;93.10
28071;DHT22;15383;48.408;9.968;2022-08-21T07:26:49;20.80;93.00
28071;DHT22;15383;48.408;9.968;2022-08-21T07:29:15;20.90;92.90
28071;DHT22;15383;48.408;9.968;2022-08-21T07:31:41;21.00;92.60
28071;DHT22;15383;48.408;9.968;2022-08-21T07:34:06;21.00;92.40
28071;DHT22;15383;48.408;9.968;2022-08-21T07:36:33;21.10;92.30
28071;DHT22;15383;48.408;9.968;2022-08-21T07:38:59;21.10;92.10
28071;DHT22;15383;48.408;9.968;2022-08-21T07:41:27;21.10;92.00
28071;DHT22;15383;48.408;9.968;2022-08-21T07:43:55;21.20;91.90
28071;DHT22;15383;48.408;9.968;2022-08-21T07:46:21;21.20;91.80
28071;DHT22;15383;48.408;9.968;2022-08-21T07:48:47;21.20;91.70
28071;DHT22;15383;48.408;9.968;2022-08-21T07:51:14;21.30;91.60
28071;DHT22;15383;48.408;9.968;2022-08-21T07:53:41;21.30;91.50
28071;DHT22;15383;48.408;9.968;2022-08-21T07:56:09;21.40;91.40
28071;DHT22;15383;48.408;9.968;2022-08-21T08:01:21;21.50;91.20
28071;DHT22;15383;48.408;9.968;2022-08-21T08:03:47;21.50;91.20
28071;DHT22;15383;48.408;9.968;2022-08-21T08:06:13;21.50;91.20
28071;DHT22;15383;48.408;9.968;2022-08-21T08:08:39;21.60;91.10
28071;DHT22;15383;48.408;9.968;2022-08-21T08:11:06;21.60;91.00
28071;DHT22;15383;48.408;9.968;2022-08-21T08:13:37;21.70;91.00
28071;DHT22;15383;48.408;9.968;2022-08-21T08:16:03;21.70;91.00
28071;DHT22;15383;48.408;9.968;2022-08-21T08:18:28;21.70;91.00
28071;DHT22;15383;48.408;9.968;2022-08-21T08:21:09;21.80;91.00
28071;DHT22;15383;48.408;9.968;2022-08-21T08:23:35;21.80;91.10
28071;DHT22;15383;48.408;9.968;2022-08-21T08:26:02;21.80;91.10
28071;DHT22;15383;48.408;9.968;2022-08-21T08:28:28;21.90;91.10
28071;DHT22;15383;48.408;9.968;2022-08-21T08:30:54;21.90;91.20
28071;DHT22;15383;48.408;9.968;2022-08-21T08:33:20;21.90;91.10
28071;DHT22;15383;48.408;9.968;2022-08-21T08:35:48;22.00;91.10
28071;DHT22;15383;48.408;9.968;2022-08-21T08:38:15;22.00;91.10
28071;DHT22;15383;48.408;9.968;2022-08-21T08:43:28;22.10;91.00
28071;DHT22;15383;48.408;9.968;2022-08-21T08:45:58;22.10;90.90
28071;DHT22;15383;48.408;9.968;2022-08-21T08:49:03;22.20;91.00
28071;DHT22;15383;48.408;9.968;2022-08-21T08:51:54;22.20;90.90
28071;DHT22;15383;48.408;9.968;2022-08-21T08:57:02;22.30;90.40
28071;DHT22;15383;48.408;9.968;2022-08-21T08:59:38;22.40;90.00
28071;DHT22;15383;48.408;9.968;2022-08-21T09:02:05;22.40;88.80
28071;DHT22;15383;48.408;9.968;2022-08-21T09:04:31;22.50;86.40
28071;DHT22;15383;48.408;9.968;2022-08-21T09:07:12;22.40;85.20
28071;DHT22;15383;48.408;9.968;2022-08-21T09:12:45;22.50;83.30
28071;DHT22;15383;48.408;9.968;2022-08-21T09:18:34;22.60;81.70
28071;DHT22;15383;48.408;9.968;2022-08-21T09:24:01;22.60;79.00
28071;DHT22;15383;48.408;9.968;2022-08-21T09:27:16;22.60;78.70
28071;DHT22;15383;48.408;9.968;2022-08-21T09:29:24;22.70;78.00
28071;DHT22;15383;48.408;9.968;2022-08-21T09:31:50;22.70;77.50
28071;DHT22;15383;48.408;9.968;2022-08-21T09:34:30;22.60;77.20
28071;DHT22;15383;48.408;9.968;2022-08-21T09:36:57;22.70;76.60
28071;DHT22;15383;48.408;9.968;2022-08-21T09:39:30;22.70;76.30
28071;DHT22;15383;48.408;9.968;2022-08-21T09:42:05;22.70;76.00
28071;DHT22;15383;48.408;9.968;2022-08-21T09:44:33;22.70;75.60
28071;DHT22;15383;48.408;9.968;2022-08-21T09:47:04;22.80;75.20
28071;DHT22;15383;48.408;9.968;2022-08-21T09:49:32;22.70;75.10
28071;DHT22;15383;48.408;9.968;2022-08-21T09:51:59;22.70;75.00
28071;DHT22;15383;48.408;9.968;2022-08-21T09:54:34;22.70;74.70
28071;DHT22;15383;48.408;9.968;2022-08-21T09:59:54;22.70;74.70
28071;DHT22;15383;48.408;9.968;2022-08-21T10:04:57;22.60;74.90
28071;DHT22;15383;48.408;9.968;2022-08-21T10:07:26;22.60;74.50
28071;DHT22;15383;48.408;9.968;2022-08-21T10:10:17;22.60;74.30
28071;DHT22;15383;48.408;9.968;2022-08-21T10:18:26;22.60;73.90
28071;DHT22;15383;48.408;9.968;2022-08-21T10:21:17;22.50;73.80
28071;DHT22;15383;48.408;9.968;2022-08-21T10:34:51;22.30;74.30
28071;DHT22;15383;48.408;9.968;2022-08-21T10:42:25;22.20;74.10
28071;DHT22;15383;48.408;9.968;2022-08-21T10:45:07;22.20;73.60
28071;DHT22;15383;48.408;9.968;2022-08-21T10:47:48;22.20;73.50
28071;DHT22;15383;48.408;9.968;2022-08-21T10:50:17;22.20;73.60
28071;DHT22;15383;48.408;9.968;2022-08-21T10:55:36;22.30;73.70
28071;DHT22;15383;48.408;9.968;2022-08-21T10:58:09;22.30;74.30
28071;DHT22;15383;48.408;9.968;2022-08-21T11:00:47;22.30;74.50
28071;DHT22;15383;48.408;9.968;2022-08-21T11:03:38;22.30;74.20
28071;DHT22;15383;48.408;9.968;2022-08-21T11:06:19;22.30;74.90
28071;DHT22;15383;48.408;9.968;2022-08-21T11:08:57;22.30;74.70
28071;DHT22;15383;48.408;9.968;2022-08-21T11:13:56;22.20;74.30
28071;DHT22;15383;48.408;9.968;2022-08-21T11:18:57;22.10;74.20
28071;DHT22;15383;48.408;9.968;2022-08-21T11:22:02;22.10;74.10
28071;DHT22;15383;48.408;9.968;2022-08-21T11:24:44;22.10;74.10
28071;DHT22;15383;48.408;9.968;2022-08-21T11:30:03;22.00;74.20
28071;DHT22;15383;48.408;9.968;2022-08-21T11:41:37;21.80;75.00
28071;DHT22;15383;48.408;9.968;2022-08-21T11:44:10;21.80;75.50
28071;DHT22;15383;48.408;9.968;2022-08-21T11:46:53;21.80;75.90
28071;DHT22;15383;48.408;9.968;2022-08-21T11:54:27;21.70;76.10
28071;DHT22;15383;48.408;9.968;2022-08-21T11:56:59;21.70;76.30
28071;DHT22;15383;48.408;9.968;2022-08-21T11:59:40;21.70;76.50
28071;DHT22;15383;48.408;9.968;2022-08-21T12:02:21;21.70;77.00
28071;DHT22;15383;48.408;9.968;2022-08-21T12:04:56;21.70;77.10
28071;DHT22;15383;48.408;9.968;2022-08-21T12:07:44;21.60;78.60
28071;DHT22;15383;48.408;9.968;2022-08-21T12:10:15;21.60;77.80
28071;DHT22;15383;48.408;9.968;2022-08-21T12:12:43;21.70;77.80
28071;DHT22;15383;48.408;9.968;2022-08-21T12:18:00;21.80;77.20
28071;DHT22;15383;48.408;9.968;2022-08-21T12:20:44;21.80;77.30
28071;DHT22;15383;48.408;9.968;2022-08-21T12:25:42;21.70;77.30
28071;DHT22;15383;48.408;9.968;2022-08-21T12:28:11;21.70;77.20
28071;DHT22;15383;48.408;9.968;2022-08-21T12:30:39;21.70;77.50
28071;DHT22;15383;48.408;9.968;2022-08-21T12:35:48;21.70;77.10
28071;DHT22;15383;48.408;9.968;2022-08-21T12:38:26;21.70;77.90
28071;DHT22;15383;48.408;9.968;2022-08-21T12:40:56;21.80;77.20
28071;DHT22;15383;48.408;9.968;2022-08-21T12:43:42;21.80;77.00
28071;DHT22;15383;48.408;9.968;2022-08-21T12:46:17;21.80;77.30
28071;DHT22;15383;48.408;9.968;2022-08-21T12:48:48;21.70;77.50
28071;DHT22;15383;48.408;9.968;2022-08-21T12:51:24;21.70;77.60
28071;DHT22;15383;48.408;9.968;2022-08-21T12:53:55;21.70;77.70
28071;DHT22;15383;48.408;9.968;2022-08-21T12:56:29;21.70;77.70
28071;DHT22;15383;48.408;9.968;2022-08-21T12:59:00;21.70;77.70
28071;DHT22;15383;48.408;9.968;2022-08-21T13:01:32;21.80;77.70
28071;DHT22;15383;48.408;9.968;2022-08-21T13:04:03;21.80;77.70
28071;DHT22;15383;48.408;9.968;2022-08-21T13:06:40;21.80;77.60
28071;DHT22;15383;48.408;9.968;2022-08-21T13:09:10;21.80;77.90
28071;DHT22;15383;48.408;9.968;2022-08-21T13:11:36;21.80;77.90
28071;DHT22;15383;48.408;9.968;2022-08-21T13:14:03;21.80;77.90
28071;DHT22;15383;48.408;9.968;2022-08-21T13:16:29;21.90;77.90
28071;DHT22;15383;48.408;9.968;2022-08-21T13:19:05;21.90;77.70
28071;DHT22;15383;48.408;9.968;2022-08-21T13:21:40;21.90;77.50
28071;DHT22;15383;48.408;9.968;2022-08-21T13:24:29;21.90;77.80
28071;DHT22;15383;48.408;9.968;2022-08-21T13:26:58;21.90;77.90
28071;DHT22;15383;48.408;9.968;2022-08-21T13:29:33;21.80;77.90
28071;DHT22;15383;48.408;9.968;2022-08-21T13:32:03;21.90;77.60
28071;DHT22;15383;48.408;9.968;2022-08-21T13:34:33;21.90;77.70
28071;DHT22;15383;48.408;9.968;2022-08-21T13:37:03;21.80;77.70
28071;DHT22;15383;48.408;9.968;2022-08-21T13:39:30;21.90;77.20
28071;DHT22;15383;48.408;9.968;2022-08-21T13:41:59;21.90;76.90
28071;DHT22;15383;48.408;9.968;2022-08-21T13:44:45;21.90;76.60
28071;DHT22;15383;48.408;9.968;2022-08-21T13:47:14;21.90;76.60
28071;DHT22;15383;48.408;9.968;2022-08-21T13:49:45;22.00;76.60
28071;DHT22;15383;48.408;9.968;2022-08-21T13:52:23;21.90;76.90
28071;DHT22;15383;48.408;9.968;2022-08-21T13:55:11;21.90;76.60
28071;DHT22;15383;48.408;9.968;2022-08-21T13:57:39;21.90;76.60
28071;DHT22;15383;48.408;9.968;2022-08-21T14:00:34;21.90;76.20
28071;DHT22;15383;48.408;9.968;2022-08-21T14:03:06;21.90;76.30
28071;DHT22;15383;48.408;9.968;2022-08-21T14:05:36;21.90;76.40
28071;DHT22;15383;48.408;9.968;2022-08-21T14:08:08;22.00;76.20
28071;DHT22;15383;48.408;9.968;2022-08-21T14:10:43;22.00;76.10
28071;DHT22;15383;48.408;9.968;2022-08-21T14:16:01;21.90;75.50
28071;DHT22;15383;48.408;9.968;2022-08-21T14:18:27;21.90;75.30
28071;DHT22;15383;48.408;9.968;2022-08-21T14:21:04;21.90;75.70
28071;DHT22;15383;48.408;9.968;2022-08-21T14:23:31;21.90;75.70
28071;DHT22;15383;48.408;9.968;2022-08-21T14:25:59;21.90;75.50
28071;DHT22;15383;48.408;9.968;2022-08-21T14:28:28;21.90;75.20
28071;DHT22;15383;48.408;9.968;2022-08-21T14:30:56;21.90;75.50
28071;DHT22;15383;48.408;9.968;2022-08-21T14:33:27;21.90;75.30
28071;DHT22;15383;48.408;9.968;2022-08-21T14:35:53;21.80;75.50
28071;DHT22;15383;48.408;9.968;2022-08-21T14:38:22;21.80;75.80
28071;DHT22;15383;48.408;9.968;2022-08-21T14:40:50;21.70;75.70
28071;DHT22;15383;48.408;9.968;2022-08-21T14:43:16;21.70;75.10
28071;DHT22;15383;48.408;9.968;2022-08-21T14:45:44;21.80;75.20
28071;DHT22;15383;48.408;9.968;2022-08-21T14:48:11;21.70;74.80
28071;DHT22;15383;48.408;9.968;2022-08-21T14:50:36;21.70;73.90
28071;DHT22;15383;48.408;9.968;2022-08-21T14:53:02;21.70;73.30
28071;DHT22;15383;48.408;9.968;2022-08-21T14:55:30;21.80;73.80
28071;DHT22;15383;48.408;9.968;2022-08-21T14:58:16;21.80;73.90
28071;DHT22;15383;48.408;9.968;2022-08-21T15:00:42;21.70;73.50
28071;DHT22;15383;48.408;9.968;2022-08-21T15:03:07;21.80;73.40
28071;DHT22;15383;48.408;9.968;2022-08-21T15:05:34;21.70;73.30
28071;DHT22;15383;48.408;9.968;2022-08-21T15:07:59;21.80;73.40
28071;DHT22;15383;48.408;9.968;2022-08-21T15:10:25;21.80;73.60
28071;DHT22;15383;48.408;9.968;2022-08-21T15:12:51;21.80;73.60
28071;DHT22;15383;48.408;9.968;2022-08-21T15:15:16;21.70;73.80
28071;DHT22;15383;48.408;9.968;2022-08-21T15:17:42;21.70;74.00
28071;DHT22;15383;48.408;9.968;2022-08-21T15:20:08;21.70;74.30
28071;DHT22;15383;48.408;9.968;2022-08-21T15:22:34;21.70;74.50
28071;DHT22;15383;48.408;9.968;2022-08-21T15:25:00;21.70;74.40
28071;DHT22;15383;48.408;9.968;2022-08-21T15:27:27;21.70;74.30
28071;DHT22;15383;48.408;9.968;2022-08-21T15:29:53;21.70;74.10
28071;DHT22;15383;48.408;9.968;2022-08-21T15:32:27;21.70;73.80
28071;DHT22;15383;48.408;9.968;2022-08-21T15:34:55;21.70;74.10
28071;DHT22;15383;48.408;9.968;2022-08-21T15:37:21;21.60;74.20
28071;DHT22;15383;48.408;9.968;2022-08-21T15:39:48;21.60;74.50
28071;DHT22;15383;48.408;9.968;2022-08-21T15:42:14;21.60;74.90
28071;DHT22;15383;48.408;9.968;2022-08-21T15:44:41;21.50;75.40
28071;DHT22;15383;48.408;9.968;2022-08-21T15:47:12;21.50;75.80
28071;DHT22;15383;48.408;9.968;2022-08-21T15:49:39;21.50;76.20
28071;DHT22;15383;48.408;9.968;2022-08-21T15:52:07;21.50;76.50
28071;DHT22;15383;48.408;9.968;2022-08-21T15:54:34;21.50;76.80
28071;DHT22;15383;48.408;9.968;2022-08-21T15:56:59;21.50;77.20
28071;DHT22;15383;48.408;9.968;2022-08-21T15:59:25;21.50;77.50
28071;DHT22;15383;48.408;9.968;2022-08-21T16:01:52;21.50;77.90
28071;DHT22;15383;48.408;9.968;2022-08-21T16:04:27;21.50;78.30
28071;DHT22;15383;48.408;9.968;2022-08-21T16:06:53;21.50;78.50
28071;DHT22;15383;48.408;9.968;2022-08-21T16:09:19;21.50;78.80
28071;DHT22;15383;48.408;9.968;2022-08-21T16:11:45;21.40;79.10
28071;DHT22;15383;48.408;9.968;2022-08-21T16:14:15;21.40;79.40
28071;DHT22;15383;48.408;9.968;2022-08-21T16:16:41;21.40;79.60
28071;DHT22;15383;48.408;9.968;2022-08-21T16:19:07;21.40;79.90
28071;DHT22;15383;48.408;9.968;2022-08-21T16:21:34;21.40;80.10
28071;DHT22;15383;48.408;9.968;2022-08-21T16:24:00;21.40;80.30
28071;DHT22;15383;48.408;9.968;2022-08-21T16:26:26;21.40;80.60
28071;DHT22;15383;48.408;9.968;2022-08-21T16:28:54;21.40;80.80
28071;DHT22;15383;48.408;9.968;2022-08-21T16:31:23;21.40;81.00
28071;DHT22;15383;48.408;9.968;2022-08-21T16:33:51;21.40;81.20
28071;DHT22;15383;48.408;9.968;2022-08-21T16:36:18;21.40;81.30
28071;DHT22;15383;48.408;9.968;2022-08-21T16:38:43;21.40;79.50
28071;DHT22;15383;48.408;9.968;2022-08-21T16:41:13;21.40;78.00
28071;DHT22;15383;48.408;9.968;2022-08-21T16:43:41;21.50;76.40
28071;DHT22;15383;48.408;9.968;2022-08-21T16:46:09;21.50;75.80
28071;DHT22;15383;48.408;9.968;2022-08-21T16:48:38;21.50;75.10
28071;DHT22;15383;48.408;9.968;2022-08-21T16:51:03;21.50;74.50
28071;DHT22;15383;48.408;9.968;2022-08-21T16:53:29;21.40;74.70
28071;DHT22;15383;48.408;9.968;2022-08-21T16:55:56;21.40;73.80
28071;DHT22;15383;48.408;9.968;2022-08-21T16:58:28;21.40;73.50
28071;DHT22;15383;48.408;9.968;2022-08-21T17:00:54;21.40;73.10
28071;DHT22;15383;48.408;9.968;2022-08-21T17:03:27;21.40;73.20
28071;DHT22;15383;48.408;9.968;2022-08-21T17:05:54;21.40;73.10
28071;DHT22;15383;48.408;9.968;2022-08-21T17:08:20;21.40;73.20